This is the latest recevied weather packets stored in our database for station/object KI4NG. If no packets are shown the sender has not sent any weather packets the latest 10 day(s).
| Time | Temp. | Humidity | Pressure | Rain* | Wind** | Luminosity | Snow |
|---|---|---|---|---|---|---|---|
| 1787944857 | 30° C | 56% | 1019.9 hPa | 0 mm | - | 613 W/m² | - |
| 1787944551 | 29.44° C | 55% | 1020 hPa | 0 mm | - | 663 W/m² | - |
| 1787944247 | 28.33° C | 62% | 1019.9 hPa | 0 mm | - | 679 W/m² | - |
| 1787943946 | 28.89° C | 60% | 1020.2 hPa | 0 mm | - | 205 W/m² | - |
| 1787943643 | 28.89° C | 58% | 1020.2 hPa | 0 mm | - | 341 W/m² | - |
| 1787943342 | 30° C | 58% | 1020.1 hPa | 0 mm | - | 157 W/m² | - |
| 1787943038 | 30° C | 58% | 1020.1 hPa | 0 mm | - | 715 W/m² | - |
| 1787942738 | 29.44° C | 62% | 1020.2 hPa | 0 mm | - | 706 W/m² | - |
| 1787942435 | 29.44° C | 57% | 1020.2 hPa | 0 mm | - | 672 W/m² | - |
| 1787942132 | 29.44° C | 53% | 1020.1 hPa | 0 mm | - | 672 W/m² | - |
| 1787941829 | 30° C | 58% | 1020.4 hPa | 0 mm | - | 665 W/m² | - |
| 1787941527 | 29.44° C | 60% | 1020.6 hPa | 0 mm | - | 737 W/m² | - |
| 1787941222 | 30° C | 57% | 1020.6 hPa | 0 mm | - | 774 W/m² | - |
| 1787940916 | 28.89° C | 61% | 1020.4 hPa | 0 mm | - | 784 W/m² | - |
| 1787940615 | 28.89° C | 66% | 1020.7 hPa | 0 mm | - | 783 W/m² | - |
| 1787940308 | 28.89° C | 64% | 1020.6 hPa | 0 mm | - | 789 W/m² | - |
| 1787940008 | 28.89° C | 58% | 1020.9 hPa | 0 mm | - | 767 W/m² | - |
| 1787939702 | 27.78° C | 66% | 1020.6 hPa | 0 mm | - | 716 W/m² | - |
| 1787939401 | 26.67° C | 73% | 1020.8 hPa | 0 mm | - | 203 W/m² | - |
| 1787939097 | 27.22° C | 71% | 1020.6 hPa | 0 mm | - | 160 W/m² | - |
| 1787938796 | 27.22° C | 71% | 1020.8 hPa | 0 mm | - | 182 W/m² | - |
| 1787938491 | 27.78° C | 69% | 1020.9 hPa | 0 mm | - | 274 W/m² | - |
| 1787938187 | 27.22° C | 67% | 1020.8 hPa | 0 mm | - | 179 W/m² | - |
| 1787937882 | 28.33° C | 66% | 1020.4 hPa | 0 mm | - | 231 W/m² | - |
| 1787937578 | 29.44° C | 64% | 1020.8 hPa | 0 mm | - | 836 W/m² | - |
* Rain latest hour (hover to see other rain measurements)
** Current wind speed in m/s (hover to see current wind gust speed)